sensor_id;sensor_type;location;lat;lon;timestamp;pressure;altitude;pressure_sealevel;temperature;humidity
16431;BME280;8325;49.284;7.238;2023-02-13T05:01:50;100694.47;;;3.75;100.00
16431;BME280;8325;49.284;7.238;2023-02-13T05:06:04;100696.72;;;3.81;100.00
16431;BME280;8325;49.284;7.238;2023-02-13T05:10:16;100686.34;;;3.82;100.00
16431;BME280;8325;49.284;7.238;2023-02-13T05:14:27;100694.25;;;3.79;100.00
16431;BME280;8325;49.284;7.238;2023-02-13T05:18:39;100689.69;;;3.67;100.00
16431;BME280;8325;49.284;7.238;2023-02-13T05:22:52;100693.09;;;3.67;100.00
16431;BME280;8325;49.284;7.238;2023-02-13T05:27:23;100692.97;;;3.71;100.00
16431;BME280;8325;49.284;7.238;2023-02-13T05:31:34;100692.97;;;3.53;100.00
16431;BME280;8325;49.284;7.238;2023-02-13T05:35:46;100687.88;;;3.52;100.00
16431;BME280;8325;49.284;7.238;2023-02-13T05:39:57;100694.88;;;3.50;100.00
16431;BME280;8325;49.284;7.238;2023-02-13T05:44:09;100692.06;;;3.54;100.00
16431;BME280;8325;49.284;7.238;2023-02-13T05:48:21;100690.97;;;3.41;100.00
16431;BME280;8325;49.284;7.238;2023-02-13T05:52:32;100700.00;;;3.32;100.00
16431;BME280;8325;49.284;7.238;2023-02-13T05:56:44;100696.22;;;3.22;100.00
16431;BME280;8325;49.284;7.238;2023-02-13T06:00:56;100697.19;;;3.19;100.00
16431;BME280;8325;49.284;7.238;2023-02-13T06:05:10;100703.97;;;3.22;100.00
16431;BME280;8325;49.284;7.238;2023-02-13T06:09:22;100701.25;;;3.25;100.00
16431;BME280;8325;49.284;7.238;2023-02-13T06:13:33;100699.56;;;3.24;100.00
16431;BME280;8325;49.284;7.238;2023-02-13T06:17:45;100694.25;;;3.27;100.00
16431;BME280;8325;49.284;7.238;2023-02-13T06:21:57;100705.03;;;3.18;100.00
16431;BME280;8325;49.284;7.238;2023-02-13T06:26:08;100708.38;;;3.20;100.00
16431;BME280;8325;49.284;7.238;2023-02-13T06:30:20;100702.13;;;3.07;100.00
16431;BME280;8325;49.284;7.238;2023-02-13T06:34:32;100700.91;;;3.14;100.00
16431;BME280;8325;49.284;7.238;2023-02-13T06:38:43;100696.28;;;3.03;100.00
16431;BME280;8325;49.284;7.238;2023-02-13T06:42:55;100706.22;;;2.93;100.00
16431;BME280;8325;49.284;7.238;2023-02-13T06:47:06;100699.50;;;2.89;100.00
16431;BME280;8325;49.284;7.238;2023-02-13T06:51:17;100712.97;;;2.77;100.00
16431;BME280;8325;49.284;7.238;2023-02-13T06:55:29;100711.31;;;2.76;100.00
16431;BME280;8325;49.284;7.238;2023-02-13T06:59:41;100705.53;;;2.71;100.00
16431;BME280;8325;49.284;7.238;2023-02-13T07:03:52;100719.88;;;2.76;100.00
16431;BME280;8325;49.284;7.238;2023-02-13T07:08:04;100723.72;;;2.87;100.00
16431;BME280;8325;49.284;7.238;2023-02-13T07:12:15;100722.31;;;2.80;100.00
16431;BME280;8325;49.284;7.238;2023-02-13T07:16:27;100723.44;;;2.74;100.00
16431;BME280;8325;49.284;7.238;2023-02-13T07:20:38;100726.16;;;2.90;100.00
16431;BME280;8325;49.284;7.238;2023-02-13T07:24:50;100742.44;;;2.73;100.00
16431;BME280;8325;49.284;7.238;2023-02-13T07:29:01;100738.63;;;2.80;100.00
16431;BME280;8325;49.284;7.238;2023-02-13T07:33:23;100741.66;;;2.71;100.00
16431;BME280;8325;49.284;7.238;2023-02-13T07:37:34;100748.50;;;2.72;100.00
16431;BME280;8325;49.284;7.238;2023-02-13T07:41:46;100745.22;;;2.68;100.00
16431;BME280;8325;49.284;7.238;2023-02-13T07:46:01;100737.34;;;2.71;100.00
16431;BME280;8325;49.284;7.238;2023-02-13T07:50:12;100736.34;;;2.74;100.00
16431;BME280;8325;49.284;7.238;2023-02-13T07:54:24;100737.91;;;2.78;100.00
16431;BME280;8325;49.284;7.238;2023-02-13T07:58:36;100734.53;;;2.76;100.00
16431;BME280;8325;49.284;7.238;2023-02-13T08:02:48;100736.63;;;2.68;100.00
16431;BME280;8325;49.284;7.238;2023-02-13T08:06:59;100732.59;;;2.62;100.00
16431;BME280;8325;49.284;7.238;2023-02-13T08:11:29;100734.81;;;2.70;100.00
16431;BME280;8325;49.284;7.238;2023-02-13T08:16:00;100727.50;;;2.80;100.00
16431;BME280;8325;49.284;7.238;2023-02-13T08:20:11;100731.81;;;2.79;100.00
16431;BME280;8325;49.284;7.238;2023-02-13T08:24:23;100728.53;;;2.94;100.00
16431;BME280;8325;49.284;7.238;2023-02-13T08:28:35;100721.56;;;2.96;100.00
16431;BME280;8325;49.284;7.238;2023-02-13T08:32:47;100734.53;;;2.95;100.00
16431;BME280;8325;49.284;7.238;2023-02-13T08:37:04;100724.13;;;2.96;100.00
16431;BME280;8325;49.284;7.238;2023-02-13T08:41:16;100727.03;;;3.08;100.00
16431;BME280;8325;49.284;7.238;2023-02-13T08:45:34;100734.91;;;3.23;100.00
16431;BME280;8325;49.284;7.238;2023-02-13T08:49:45;100726.53;;;3.18;100.00
16431;BME280;8325;49.284;7.238;2023-02-13T08:53:57;100732.31;;;3.23;100.00
16431;BME280;8325;49.284;7.238;2023-02-13T08:58:08;100732.41;;;3.39;100.00
16431;BME280;8325;49.284;7.238;2023-02-13T09:02:20;100722.84;;;3.76;100.00
16431;BME280;8325;49.284;7.238;2023-02-13T09:06:31;100727.38;;;3.88;100.00
16431;BME280;8325;49.284;7.238;2023-02-13T09:10:43;100726.13;;;4.13;100.00
16431;BME280;8325;49.284;7.238;2023-02-13T09:14:54;100734.91;;;4.26;100.00
16431;BME280;8325;49.284;7.238;2023-02-13T09:19:06;100740.69;;;4.31;100.00
16431;BME280;8325;49.284;7.238;2023-02-13T09:23:17;100733.50;;;4.36;100.00
16431;BME280;8325;49.284;7.238;2023-02-13T09:27:29;100729.69;;;4.59;100.00
16431;BME280;8325;49.284;7.238;2023-02-13T09:31:41;100741.56;;;4.79;100.00
16431;BME280;8325;49.284;7.238;2023-02-13T09:35:52;100730.03;;;4.69;99.50
16431;BME280;8325;49.284;7.238;2023-02-13T09:40:05;100739.88;;;4.63;100.00
16431;BME280;8325;49.284;7.238;2023-02-13T09:44:38;100744.56;;;4.56;100.00
16431;BME280;8325;49.284;7.238;2023-02-13T09:48:55;100740.06;;;4.75;99.86
16431;BME280;8325;49.284;7.238;2023-02-13T09:53:15;100744.91;;;4.81;98.26
16431;BME280;8325;49.284;7.238;2023-02-13T09:57:34;100747.41;;;4.99;96.93
16431;BME280;8325;49.284;7.238;2023-02-13T10:01:49;100741.38;;;4.98;96.51
16431;BME280;8325;49.284;7.238;2023-02-13T10:19:40;100738.56;;;5.63;94.62
16431;BME280;8325;49.284;7.238;2023-02-13T10:24:06;100739.72;;;5.73;93.27
16431;BME280;8325;49.284;7.238;2023-02-13T10:32:47;100743.84;;;5.92;92.15
16431;BME280;8325;49.284;7.238;2023-02-13T10:37:01;100742.59;;;6.13;91.77
16431;BME280;8325;49.284;7.238;2023-02-13T10:41:22;100747.03;;;6.26;91.07
16431;BME280;8325;49.284;7.238;2023-02-13T10:46:02;100736.19;;;6.48;90.70
16431;BME280;8325;49.284;7.238;2023-02-13T10:51:18;100739.97;;;6.56;89.59
16431;BME280;8325;49.284;7.238;2023-02-13T10:55:07;100728.66;;;6.72;89.50
16431;BME280;8325;49.284;7.238;2023-02-13T11:04:09;100721.91;;;6.96;88.45
16431;BME280;8325;49.284;7.238;2023-02-13T11:08:31;100717.13;;;7.03;87.54
16431;BME280;8325;49.284;7.238;2023-02-13T11:12:43;100700.84;;;7.13;87.50
16431;BME280;8325;49.284;7.238;2023-02-13T11:17:04;100701.06;;;7.23;86.66
16431;BME280;8325;49.284;7.238;2023-02-13T11:21:22;100700.31;;;7.48;86.18
16431;BME280;8325;49.284;7.238;2023-02-13T11:26:00;100697.81;;;7.59;84.95
16431;BME280;8325;49.284;7.238;2023-02-13T11:34:33;100686.09;;;7.79;84.59
16431;BME280;8325;49.284;7.238;2023-02-13T11:38:56;100689.09;;;7.86;83.90
16431;BME280;8325;49.284;7.238;2023-02-13T11:43:17;100685.75;;;8.10;83.14
16431;BME280;8325;49.284;7.238;2023-02-13T11:51:47;100681.88;;;8.28;81.39
16431;BME280;8325;49.284;7.238;2023-02-13T11:56:12;100683.66;;;8.40;82.18
16431;BME280;8325;49.284;7.238;2023-02-13T12:00:28;100677.91;;;8.48;81.25
16431;BME280;8325;49.284;7.238;2023-02-13T12:04:41;100672.94;;;8.69;80.17
16431;BME280;8325;49.284;7.238;2023-02-13T12:08:53;100666.63;;;8.84;80.32
16431;BME280;8325;49.284;7.238;2023-02-13T12:13:13;100672.56;;;8.86;79.34
16431;BME280;8325;49.284;7.238;2023-02-13T12:17:27;100670.28;;;9.06;77.76
16431;BME280;8325;49.284;7.238;2023-02-13T12:21:46;100663.94;;;9.21;78.10
16431;BME280;8325;49.284;7.238;2023-02-13T12:26:08;100668.84;;;9.37;75.91
16431;BME280;8325;49.284;7.238;2023-02-13T12:30:51;100661.38;;;9.43;76.32
16431;BME280;8325;49.284;7.238;2023-02-13T12:35:30;100661.63;;;9.40;76.07
16431;BME280;8325;49.284;7.238;2023-02-13T12:44:58;100643.41;;;9.74;75.72
16431;BME280;8325;49.284;7.238;2023-02-13T12:54:12;100634.28;;;9.91;74.37
16431;BME280;8325;49.284;7.238;2023-02-13T13:15:53;100620.50;;;10.23;72.19
16431;BME280;8325;49.284;7.238;2023-02-13T13:25:35;100610.59;;;10.49;71.99
16431;BME280;8325;49.284;7.238;2023-02-13T13:29:57;100601.13;;;10.48;71.85
16431;BME280;8325;49.284;7.238;2023-02-13T13:34:16;100598.50;;;10.48;70.40
16431;BME280;8325;49.284;7.238;2023-02-13T13:38:51;100594.44;;;10.55;70.61
16431;BME280;8325;49.284;7.238;2023-02-13T13:52:30;100578.88;;;10.86;70.34
16431;BME280;8325;49.284;7.238;2023-02-13T14:01:16;100563.66;;;10.91;70.69
16431;BME280;8325;49.284;7.238;2023-02-13T14:05:30;100569.31;;;10.96;70.28
16431;BME280;8325;49.284;7.238;2023-02-13T14:09:42;100569.97;;;11.09;68.09
16431;BME280;8325;49.284;7.238;2023-02-13T14:13:54;100563.19;;;11.06;69.46
16431;BME280;8325;49.284;7.238;2023-02-13T14:26:37;100559.81;;;11.16;69.98
16431;BME280;8325;49.284;7.238;2023-02-13T14:30:50;100556.53;;;11.23;69.22
16431;BME280;8325;49.284;7.238;2023-02-13T14:35:15;100557.00;;;11.28;68.88
16431;BME280;8325;49.284;7.238;2023-02-13T14:39:30;100551.94;;;11.37;67.75
16431;BME280;8325;49.284;7.238;2023-02-13T14:43:50;100548.63;;;11.35;68.11
16431;BME280;8325;49.284;7.238;2023-02-13T14:48:06;100546.63;;;11.48;64.43
16431;BME280;8325;49.284;7.238;2023-02-13T14:52:24;100543.88;;;11.49;66.23
16431;BME280;8325;49.284;7.238;2023-02-13T14:56:38;100545.41;;;11.52;66.13
16431;BME280;8325;49.284;7.238;2023-02-13T15:00:56;100543.72;;;11.51;64.39
16431;BME280;8325;49.284;7.238;2023-02-13T15:05:14;100543.22;;;11.57;62.20
16431;BME280;8325;49.284;7.238;2023-02-13T15:09:34;100535.50;;;11.56;62.12
16431;BME280;8325;49.284;7.238;2023-02-13T15:13:49;100543.34;;;11.56;63.49
16431;BME280;8325;49.284;7.238;2023-02-13T15:18:03;100537.03;;;11.58;59.64
16431;BME280;8325;49.284;7.238;2023-02-13T15:22:25;100528.09;;;11.61;60.86
16431;BME280;8325;49.284;7.238;2023-02-13T15:26:40;100536.75;;;11.51;58.76
16431;BME280;8325;49.284;7.238;2023-02-13T15:30:53;100537.38;;;11.44;57.45
16431;BME280;8325;49.284;7.238;2023-02-13T15:39:32;100542.69;;;11.33;59.26
16431;BME280;8325;49.284;7.238;2023-02-13T15:43:46;100552.72;;;11.27;59.01
16431;BME280;8325;49.284;7.238;2023-02-13T15:47:58;100533.09;;;11.12;58.10
16431;BME280;8325;49.284;7.238;2023-02-13T15:52:30;100535.25;;;11.07;59.08
16431;BME280;8325;49.284;7.238;2023-02-13T15:56:43;100529.47;;;11.03;59.51
16431;BME280;8325;49.284;7.238;2023-02-13T16:01:00;100537.94;;;10.96;58.49
16431;BME280;8325;49.284;7.238;2023-02-13T16:05:13;100540.38;;;10.88;59.31
16431;BME280;8325;49.284;7.238;2023-02-13T16:09:31;100542.53;;;10.82;60.31
16431;BME280;8325;49.284;7.238;2023-02-13T16:18:29;100552.59;;;10.66;60.80
16431;BME280;8325;49.284;7.238;2023-02-13T16:22:48;100547.88;;;10.60;61.40
16431;BME280;8325;49.284;7.238;2023-02-13T16:27:01;100550.50;;;10.49;62.23
16431;BME280;8325;49.284;7.238;2023-02-13T16:31:14;100551.50;;;10.36;63.17
16431;BME280;8325;49.284;7.238;2023-02-13T16:35:28;100563.97;;;10.22;63.33
16431;BME280;8325;49.284;7.238;2023-02-13T16:39:41;100567.13;;;10.04;63.54
16431;BME280;8325;49.284;7.238;2023-02-13T16:48:13;100564.63;;;9.69;64.83
16431;BME280;8325;49.284;7.238;2023-02-13T16:52:25;100569.88;;;9.58;65.29
16431;BME280;8325;49.284;7.238;2023-02-13T16:56:43;100573.03;;;9.39;66.60
16431;BME280;8325;49.284;7.238;2023-02-13T17:00:56;100576.44;;;9.17;67.86
16431;BME280;8325;49.284;7.238;2023-02-13T17:09:20;100575.16;;;8.76;69.58
16431;BME280;8325;49.284;7.238;2023-02-13T17:13:33;100582.75;;;8.55;70.94
16431;BME280;8325;49.284;7.238;2023-02-13T17:17:46;100581.44;;;8.37;71.71
16431;BME280;8325;49.284;7.238;2023-02-13T17:21:58;100592.13;;;8.21;71.82
16431;BME280;8325;49.284;7.238;2023-02-13T17:26:09;100593.75;;;7.98;72.80
16431;BME280;8325;49.284;7.238;2023-02-13T17:30:24;100600.75;;;7.72;74.52
16431;BME280;8325;49.284;7.238;2023-02-13T17:34:35;100598.69;;;7.77;74.68
16431;BME280;8325;49.284;7.238;2023-02-13T17:38:47;100598.88;;;7.87;74.38
16431;BME280;8325;49.284;7.238;2023-02-13T17:42:58;100599.41;;;7.79;73.86
16431;BME280;8325;49.284;7.238;2023-02-13T17:47:10;100599.72;;;7.74;73.77
16431;BME280;8325;49.284;7.238;2023-02-13T17:51:21;100597.25;;;7.73;74.12
16431;BME280;8325;49.284;7.238;2023-02-13T17:55:33;100593.28;;;7.67;73.72
16431;BME280;8325;49.284;7.238;2023-02-13T17:59:45;100590.16;;;7.62;74.66
16431;BME280;8325;49.284;7.238;2023-02-13T18:03:57;100584.75;;;7.52;75.17
16431;BME280;8325;49.284;7.238;2023-02-13T18:08:08;100592.03;;;7.47;74.99
16431;BME280;8325;49.284;7.238;2023-02-13T18:12:22;100601.06;;;7.42;75.36
16431;BME280;8325;49.284;7.238;2023-02-13T18:16:33;100587.44;;;7.38;75.45
16431;BME280;8325;49.284;7.238;2023-02-13T18:20:45;100591.00;;;7.37;75.75
16431;BME280;8325;49.284;7.238;2023-02-13T18:24:57;100589.75;;;7.30;75.87
16431;BME280;8325;49.284;7.238;2023-02-13T18:29:08;100591.06;;;7.23;76.55
16431;BME280;8325;49.284;7.238;2023-02-13T18:33:20;100592.09;;;7.20;76.70
16431;BME280;8325;49.284;7.238;2023-02-13T18:37:32;100590.66;;;7.16;77.54
16431;BME280;8325;49.284;7.238;2023-02-13T18:41:44;100585.94;;;6.96;78.12
16431;BME280;8325;49.284;7.238;2023-02-13T18:45:55;100591.50;;;6.77;79.13
16431;BME280;8325;49.284;7.238;2023-02-13T18:50:07;100604.34;;;6.53;80.05
16431;BME280;8325;49.284;7.238;2023-02-13T18:54:19;100610.19;;;6.42;80.58
16431;BME280;8325;49.284;7.238;2023-02-13T18:58:32;100620.59;;;6.28;81.43
16431;BME280;8325;49.284;7.238;2023-02-13T19:02:44;100619.31;;;6.20;82.16
16431;BME280;8325;49.284;7.238;2023-02-13T19:06:55;100623.69;;;6.06;82.25
16431;BME280;8325;49.284;7.238;2023-02-13T19:11:11;100622.69;;;5.94;83.14
16431;BME280;8325;49.284;7.238;2023-02-13T19:15:24;100625.78;;;5.85;83.71
16431;BME280;8325;49.284;7.238;2023-02-13T19:19:36;100621.34;;;5.72;84.84
16431;BME280;8325;49.284;7.238;2023-02-13T19:23:48;100612.75;;;5.86;84.06
16431;BME280;8325;49.284;7.238;2023-02-13T19:28:00;100617.50;;;5.94;83.24
16431;BME280;8325;49.284;7.238;2023-02-13T19:32:14;100613.00;;;5.82;84.22
16431;BME280;8325;49.284;7.238;2023-02-13T19:36:31;100614.13;;;5.77;84.43
16431;BME280;8325;49.284;7.238;2023-02-13T19:40:45;100612.28;;;5.80;83.58
16431;BME280;8325;49.284;7.238;2023-02-13T19:45:02;100617.66;;;5.62;84.57
16431;BME280;8325;49.284;7.238;2023-02-13T19:49:18;100622.16;;;5.44;84.83
16431;BME280;8325;49.284;7.238;2023-02-13T19:53:40;100624.28;;;5.23;85.69
16431;BME280;8325;49.284;7.238;2023-02-13T19:57:54;100620.72;;;5.10;86.22
16431;BME280;8325;49.284;7.238;2023-02-13T20:02:11;100632.28;;;4.89;87.18
16431;BME280;8325;49.284;7.238;2023-02-13T20:06:31;100630.91;;;4.67;87.76
16431;BME280;8325;49.284;7.238;2023-02-13T20:10:48;100637.75;;;4.52;88.88
16431;BME280;8325;49.284;7.238;2023-02-13T20:15:00;100637.94;;;4.33;89.96
16431;BME280;8325;49.284;7.238;2023-02-13T20:19:17;100643.09;;;4.33;89.96
16431;BME280;8325;49.284;7.238;2023-02-13T20:23:32;100634.09;;;4.25;90.54
16431;BME280;8325;49.284;7.238;2023-02-13T20:27:47;100637.03;;;4.34;89.39
16431;BME280;8325;49.284;7.238;2023-02-13T20:32:00;100634.94;;;4.25;88.82
16431;BME280;8325;49.284;7.238;2023-02-13T20:36:15;100638.34;;;4.10;88.02
16431;BME280;8325;49.284;7.238;2023-02-13T20:40:27;100633.81;;;3.98;88.71
16431;BME280;8325;49.284;7.238;2023-02-13T20:44:38;100632.19;;;3.79;87.78
16431;BME280;8325;49.284;7.238;2023-02-13T20:48:50;100629.16;;;3.71;87.86
16431;BME280;8325;49.284;7.238;2023-02-13T20:53:01;100630.56;;;3.61;88.92
16431;BME280;8325;49.284;7.238;2023-02-13T20:57:13;100636.03;;;3.55;90.55
16431;BME280;8325;49.284;7.238;2023-02-13T21:01:32;100638.47;;;3.58;90.84
16431;BME280;8325;49.284;7.238;2023-02-13T21:05:59;100629.03;;;3.57;89.85
16431;BME280;8325;49.284;7.238;2023-02-13T21:10:22;100623.13;;;3.37;89.15
16431;BME280;8325;49.284;7.238;2023-02-13T21:14:50;100622.63;;;3.31;89.13
16431;BME280;8325;49.284;7.238;2023-02-13T21:19:05;100626.44;;;3.23;88.83
16431;BME280;8325;49.284;7.238;2023-02-13T21:23:20;100624.22;;;3.16;89.43
16431;BME280;8325;49.284;7.238;2023-02-13T21:27:51;100619.44;;;3.08;88.88
16431;BME280;8325;49.284;7.238;2023-02-13T21:32:02;100619.66;;;3.04;89.58
16431;BME280;8325;49.284;7.238;2023-02-13T21:36:14;100618.28;;;2.96;89.21
16431;BME280;8325;49.284;7.238;2023-02-13T21:40:26;100622.19;;;2.86;89.00
16431;BME280;8325;49.284;7.238;2023-02-13T21:44:37;100615.69;;;2.79;89.23
16431;BME280;8325;49.284;7.238;2023-02-13T21:48:59;100613.38;;;2.73;90.70
16431;BME280;8325;49.284;7.238;2023-02-13T21:53:11;100620.50;;;2.68;90.15
16431;BME280;8325;49.284;7.238;2023-02-13T21:57:23;100607.94;;;2.62;90.72
16431;BME280;8325;49.284;7.238;2023-02-13T22:01:35;100611.41;;;2.61;90.74
16431;BME280;8325;49.284;7.238;2023-02-13T22:05:48;100609.47;;;2.47;89.88
16431;BME280;8325;49.284;7.238;2023-02-13T22:09:59;100612.81;;;2.49;89.97
16431;BME280;8325;49.284;7.238;2023-02-13T22:14:14;100614.38;;;2.34;89.44
16431;BME280;8325;49.284;7.238;2023-02-13T22:18:34;100621.47;;;2.29;90.53
16431;BME280;8325;49.284;7.238;2023-02-13T22:22:45;100618.53;;;2.18;90.49
16431;BME280;8325;49.284;7.238;2023-02-13T22:26:57;100619.47;;;2.17;90.36
